sensor_id;sensor_type;location;lat;lon;timestamp;P1;durP1;ratioP1;P2;durP2;ratioP2
4051;SDS011;2040;50.924;11.604;2023-07-24T00:00:57;3.47;;;2.07;;
4051;SDS011;2040;50.924;11.604;2023-07-24T00:03:22;4.23;;;1.93;;
4051;SDS011;2040;50.924;11.604;2023-07-24T00:05:48;4.60;;;2.03;;
4051;SDS011;2040;50.924;11.604;2023-07-24T00:08:13;3.40;;;2.27;;
4051;SDS011;2040;50.924;11.604;2023-07-24T00:10:39;3.67;;;2.67;;
4051;SDS011;2040;50.924;11.604;2023-07-24T00:13:04;2.70;;;1.90;;
4051;SDS011;2040;50.924;11.604;2023-07-24T00:15:30;6.50;;;2.30;;
4051;SDS011;2040;50.924;11.604;2023-07-24T00:17:56;3.90;;;2.20;;
4051;SDS011;2040;50.924;11.604;2023-07-24T00:20:21;7.00;;;2.47;;
4051;SDS011;2040;50.924;11.604;2023-07-24T00:22:49;5.73;;;2.90;;
4051;SDS011;2040;50.924;11.604;2023-07-24T00:25:14;2.53;;;2.10;;
4051;SDS011;2040;50.924;11.604;2023-07-24T00:27:40;6.80;;;3.00;;
4051;SDS011;2040;50.924;11.604;2023-07-24T00:30:06;3.33;;;2.50;;
4051;SDS011;2040;50.924;11.604;2023-07-24T00:32:32;3.77;;;2.27;;
4051;SDS011;2040;50.924;11.604;2023-07-24T00:34:57;6.23;;;2.60;;
4051;SDS011;2040;50.924;11.604;2023-07-24T00:37:23;3.97;;;2.37;;
4051;SDS011;2040;50.924;11.604;2023-07-24T00:39:49;10.53;;;2.50;;
4051;SDS011;2040;50.924;11.604;2023-07-24T00:42:15;4.63;;;2.40;;
4051;SDS011;2040;50.924;11.604;2023-07-24T00:44:40;14.67;;;3.43;;
4051;SDS011;2040;50.924;11.604;2023-07-24T00:47:06;5.70;;;2.10;;
4051;SDS011;2040;50.924;11.604;2023-07-24T00:49:32;3.00;;;2.20;;
4051;SDS011;2040;50.924;11.604;2023-07-24T00:51:59;14.40;;;3.07;;
4051;SDS011;2040;50.924;11.604;2023-07-24T00:54:24;3.57;;;2.33;;
4051;SDS011;2040;50.924;11.604;2023-07-24T00:56:54;7.53;;;2.47;;
4051;SDS011;2040;50.924;11.604;2023-07-24T00:59:20;4.10;;;2.50;;
4051;SDS011;2040;50.924;11.604;2023-07-24T01:01:46;3.37;;;2.73;;
4051;SDS011;2040;50.924;11.604;2023-07-24T01:04:13;3.97;;;2.40;;
4051;SDS011;2040;50.924;11.604;2023-07-24T01:06:39;3.23;;;2.23;;
4051;SDS011;2040;50.924;11.604;2023-07-24T01:09:05;7.93;;;3.30;;
4051;SDS011;2040;50.924;11.604;2023-07-24T01:11:39;4.23;;;2.67;;
4051;SDS011;2040;50.924;11.604;2023-07-24T01:16:48;6.17;;;2.33;;
4051;SDS011;2040;50.924;11.604;2023-07-24T01:22:08;2.20;;;2.00;;
4051;SDS011;2040;50.924;11.604;2023-07-24T02:51:20;5.30;;;2.70;;
4051;SDS011;2040;50.924;11.604;2023-07-24T02:53:46;3.77;;;2.40;;
4051;SDS011;2040;50.924;11.604;2023-07-24T02:56:11;2.63;;;2.10;;
4051;SDS011;2040;50.924;11.604;2023-07-24T02:58:37;2.83;;;2.40;;
4051;SDS011;2040;50.924;11.604;2023-07-24T03:01:03;4.20;;;2.70;;
4051;SDS011;2040;50.924;11.604;2023-07-24T03:03:31;9.30;;;2.90;;
4051;SDS011;2040;50.924;11.604;2023-07-24T03:05:56;3.43;;;2.20;;
4051;SDS011;2040;50.924;11.604;2023-07-24T03:08:22;4.03;;;2.70;;
4051;SDS011;2040;50.924;11.604;2023-07-24T03:10:47;5.60;;;2.80;;
4051;SDS011;2040;50.924;11.604;2023-07-24T03:13:13;6.50;;;2.77;;
4051;SDS011;2040;50.924;11.604;2023-07-24T03:15:39;5.93;;;2.33;;
4051;SDS011;2040;50.924;11.604;2023-07-24T03:18:04;3.37;;;2.53;;
4051;SDS011;2040;50.924;11.604;2023-07-24T03:20:30;3.73;;;2.77;;
4051;SDS011;2040;50.924;11.604;2023-07-24T03:22:55;3.57;;;2.80;;
4051;SDS011;2040;50.924;11.604;2023-07-24T03:25:21;5.00;;;2.93;;
4051;SDS011;2040;50.924;11.604;2023-07-24T03:27:46;3.67;;;2.27;;
4051;SDS011;2040;50.924;11.604;2023-07-24T03:30:12;4.43;;;2.60;;
4051;SDS011;2040;50.924;11.604;2023-07-24T03:32:38;6.67;;;3.10;;
4051;SDS011;2040;50.924;11.604;2023-07-24T03:35:04;5.70;;;2.50;;
4051;SDS011;2040;50.924;11.604;2023-07-24T03:37:31;3.77;;;2.83;;
4051;SDS011;2040;50.924;11.604;2023-07-24T03:39:56;5.67;;;3.20;;
4051;SDS011;2040;50.924;11.604;2023-07-24T03:42:26;4.90;;;3.33;;
4051;SDS011;2040;50.924;11.604;2023-07-24T03:44:53;7.10;;;3.00;;
4051;SDS011;2040;50.924;11.604;2023-07-24T03:47:19;7.40;;;2.77;;
4051;SDS011;2040;50.924;11.604;2023-07-24T03:49:45;4.83;;;2.70;;
4051;SDS011;2040;50.924;11.604;2023-07-24T03:52:11;7.00;;;3.40;;
4051;SDS011;2040;50.924;11.604;2023-07-24T03:54:36;6.00;;;3.20;;
4051;SDS011;2040;50.924;11.604;2023-07-24T03:57:02;5.37;;;3.10;;
4051;SDS011;2040;50.924;11.604;2023-07-24T03:59:28;5.10;;;2.50;;
4051;SDS011;2040;50.924;11.604;2023-07-24T04:01:55;8.67;;;3.50;;
4051;SDS011;2040;50.924;11.604;2023-07-24T04:04:20;5.63;;;2.80;;
4051;SDS011;2040;50.924;11.604;2023-07-24T04:06:46;6.40;;;3.00;;
4051;SDS011;2040;50.924;11.604;2023-07-24T04:09:12;5.77;;;3.10;;
4051;SDS011;2040;50.924;11.604;2023-07-24T04:11:40;4.47;;;3.17;;
4051;SDS011;2040;50.924;11.604;2023-07-24T04:14:06;5.00;;;2.90;;
4051;SDS011;2040;50.924;11.604;2023-07-24T04:16:31;3.40;;;2.53;;
4051;SDS011;2040;50.924;11.604;2023-07-24T04:18:57;6.60;;;3.60;;
4051;SDS011;2040;50.924;11.604;2023-07-24T04:21:22;9.23;;;3.93;;
4051;SDS011;2040;50.924;11.604;2023-07-24T04:23:48;9.73;;;3.43;;
4051;SDS011;2040;50.924;11.604;2023-07-24T04:26:14;8.93;;;4.50;;
4051;SDS011;2040;50.924;11.604;2023-07-24T04:28:39;6.47;;;3.07;;
4051;SDS011;2040;50.924;11.604;2023-07-24T04:31:05;7.10;;;2.80;;
4051;SDS011;2040;50.924;11.604;2023-07-24T04:33:30;4.43;;;2.90;;
4051;SDS011;2040;50.924;11.604;2023-07-24T04:35:56;5.70;;;3.13;;
4051;SDS011;2040;50.924;11.604;2023-07-24T04:38:21;5.07;;;3.30;;
4051;SDS011;2040;50.924;11.604;2023-07-24T04:40:47;4.47;;;3.10;;
4051;SDS011;2040;50.924;11.604;2023-07-24T04:43:13;4.33;;;2.70;;
4051;SDS011;2040;50.924;11.604;2023-07-24T04:45:38;5.47;;;3.17;;
4051;SDS011;2040;50.924;11.604;2023-07-24T04:48:04;4.83;;;3.07;;
4051;SDS011;2040;50.924;11.604;2023-07-24T04:50:30;6.60;;;3.37;;
4051;SDS011;2040;50.924;11.604;2023-07-24T04:52:56;13.90;;;4.10;;
4051;SDS011;2040;50.924;11.604;2023-07-24T04:55:22;4.30;;;3.00;;
4051;SDS011;2040;50.924;11.604;2023-07-24T04:57:47;7.20;;;4.00;;
4051;SDS011;2040;50.924;11.604;2023-07-24T05:00:13;6.23;;;3.03;;
4051;SDS011;2040;50.924;11.604;2023-07-24T05:02:39;6.13;;;3.17;;
4051;SDS011;2040;50.924;11.604;2023-07-24T05:05:05;8.70;;;3.70;;
4051;SDS011;2040;50.924;11.604;2023-07-24T05:07:30;13.00;;;3.87;;
4051;SDS011;2040;50.924;11.604;2023-07-24T05:09:56;5.90;;;3.10;;
4051;SDS011;2040;50.924;11.604;2023-07-24T05:12:22;6.90;;;3.10;;
4051;SDS011;2040;50.924;11.604;2023-07-24T05:14:47;6.37;;;3.83;;
4051;SDS011;2040;50.924;11.604;2023-07-24T05:17:13;10.10;;;4.30;;
4051;SDS011;2040;50.924;11.604;2023-07-24T05:19:38;6.07;;;3.30;;
4051;SDS011;2040;50.924;11.604;2023-07-24T05:22:04;7.27;;;4.20;;
4051;SDS011;2040;50.924;11.604;2023-07-24T05:24:30;10.20;;;3.40;;
4051;SDS011;2040;50.924;11.604;2023-07-24T05:26:56;9.83;;;3.77;;
4051;SDS011;2040;50.924;11.604;2023-07-24T05:29:21;11.10;;;3.33;;
4051;SDS011;2040;50.924;11.604;2023-07-24T05:31:47;5.43;;;3.70;;
4051;SDS011;2040;50.924;11.604;2023-07-24T05:34:13;7.73;;;3.70;;
4051;SDS011;2040;50.924;11.604;2023-07-24T05:36:39;6.00;;;3.80;;
4051;SDS011;2040;50.924;11.604;2023-07-24T05:39:05;10.10;;;5.30;;
4051;SDS011;2040;50.924;11.604;2023-07-24T05:41:31;6.67;;;3.23;;
4051;SDS011;2040;50.924;11.604;2023-07-24T05:43:56;4.90;;;2.93;;
4051;SDS011;2040;50.924;11.604;2023-07-24T05:46:22;5.43;;;3.40;;
4051;SDS011;2040;50.924;11.604;2023-07-24T05:48:48;5.77;;;3.13;;
4051;SDS011;2040;50.924;11.604;2023-07-24T05:51:13;9.63;;;4.17;;
4051;SDS011;2040;50.924;11.604;2023-07-24T05:53:39;6.43;;;4.07;;
4051;SDS011;2040;50.924;11.604;2023-07-24T05:56:05;6.90;;;3.70;;
4051;SDS011;2040;50.924;11.604;2023-07-24T05:58:30;6.40;;;3.47;;
4051;SDS011;2040;50.924;11.604;2023-07-24T06:00:56;7.03;;;3.20;;
4051;SDS011;2040;50.924;11.604;2023-07-24T06:03:22;8.63;;;4.30;;
4051;SDS011;2040;50.924;11.604;2023-07-24T06:05:52;7.00;;;3.70;;
4051;SDS011;2040;50.924;11.604;2023-07-24T06:08:18;4.80;;;3.30;;
4051;SDS011;2040;50.924;11.604;2023-07-24T06:10:48;10.83;;;3.77;;
4051;SDS011;2040;50.924;11.604;2023-07-24T06:13:15;8.73;;;3.57;;
4051;SDS011;2040;50.924;11.604;2023-07-24T06:15:41;7.57;;;3.90;;
4051;SDS011;2040;50.924;11.604;2023-07-24T06:18:07;6.97;;;3.83;;
4051;SDS011;2040;50.924;11.604;2023-07-24T06:20:32;7.23;;;3.70;;
4051;SDS011;2040;50.924;11.604;2023-07-24T06:22:58;7.33;;;3.97;;
4051;SDS011;2040;50.924;11.604;2023-07-24T06:25:23;5.87;;;3.80;;
4051;SDS011;2040;50.924;11.604;2023-07-24T06:27:49;8.90;;;4.27;;
4051;SDS011;2040;50.924;11.604;2023-07-24T06:30:15;10.10;;;4.37;;
4051;SDS011;2040;50.924;11.604;2023-07-24T06:32:40;7.63;;;4.13;;
4051;SDS011;2040;50.924;11.604;2023-07-24T06:35:06;7.87;;;4.57;;
4051;SDS011;2040;50.924;11.604;2023-07-24T06:37:32;5.57;;;3.90;;
4051;SDS011;2040;50.924;11.604;2023-07-24T06:40:00;6.67;;;3.60;;
4051;SDS011;2040;50.924;11.604;2023-07-24T06:42:26;6.97;;;4.10;;
4051;SDS011;2040;50.924;11.604;2023-07-24T06:44:55;5.20;;;3.37;;
4051;SDS011;2040;50.924;11.604;2023-07-24T06:47:20;8.50;;;4.20;;
4051;SDS011;2040;50.924;11.604;2023-07-24T06:49:46;16.00;;;4.80;;
4051;SDS011;2040;50.924;11.604;2023-07-24T06:52:12;7.67;;;4.43;;
4051;SDS011;2040;50.924;11.604;2023-07-24T06:54:37;6.40;;;3.83;;
4051;SDS011;2040;50.924;11.604;2023-07-24T06:57:03;10.60;;;3.77;;
4051;SDS011;2040;50.924;11.604;2023-07-24T06:59:29;5.70;;;3.50;;
4051;SDS011;2040;50.924;11.604;2023-07-24T07:01:54;6.33;;;3.90;;
4051;SDS011;2040;50.924;11.604;2023-07-24T07:04:20;7.03;;;3.90;;
4051;SDS011;2040;50.924;11.604;2023-07-24T07:06:45;8.17;;;3.70;;
4051;SDS011;2040;50.924;11.604;2023-07-24T07:09:11;6.50;;;3.47;;
4051;SDS011;2040;50.924;11.604;2023-07-24T07:11:36;7.97;;;4.30;;
4051;SDS011;2040;50.924;11.604;2023-07-24T07:14:02;8.00;;;4.10;;
4051;SDS011;2040;50.924;11.604;2023-07-24T07:16:28;5.20;;;3.70;;
4051;SDS011;2040;50.924;11.604;2023-07-24T07:18:53;9.40;;;4.00;;
4051;SDS011;2040;50.924;11.604;2023-07-24T07:21:19;8.57;;;4.07;;
4051;SDS011;2040;50.924;11.604;2023-07-24T07:23:44;7.83;;;4.23;;
4051;SDS011;2040;50.924;11.604;2023-07-24T07:26:10;5.33;;;3.70;;
4051;SDS011;2040;50.924;11.604;2023-07-24T07:28:35;7.73;;;4.20;;
4051;SDS011;2040;50.924;11.604;2023-07-24T07:31:02;6.73;;;3.93;;
4051;SDS011;2040;50.924;11.604;2023-07-24T07:33:28;8.43;;;3.80;;
4051;SDS011;2040;50.924;11.604;2023-07-24T07:35:54;4.60;;;3.40;;
4051;SDS011;2040;50.924;11.604;2023-07-24T07:38:20;7.17;;;4.00;;
4051;SDS011;2040;50.924;11.604;2023-07-24T07:40:47;7.87;;;3.43;;
4051;SDS011;2040;50.924;11.604;2023-07-24T07:43:13;6.33;;;3.93;;
4051;SDS011;2040;50.924;11.604;2023-07-24T07:45:39;6.77;;;3.83;;
4051;SDS011;2040;50.924;11.604;2023-07-24T07:48:04;7.00;;;3.80;;
4051;SDS011;2040;50.924;11.604;2023-07-24T07:50:30;9.07;;;3.50;;
4051;SDS011;2040;50.924;11.604;2023-07-24T07:52:56;7.83;;;5.27;;
4051;SDS011;2040;50.924;11.604;2023-07-24T07:55:21;9.10;;;4.03;;
4051;SDS011;2040;50.924;11.604;2023-07-24T07:57:47;6.60;;;3.90;;
4051;SDS011;2040;50.924;11.604;2023-07-24T08:00:13;7.50;;;4.30;;
4051;SDS011;2040;50.924;11.604;2023-07-24T08:02:38;10.07;;;4.53;;
4051;SDS011;2040;50.924;11.604;2023-07-24T08:05:08;9.77;;;4.00;;
4051;SDS011;2040;50.924;11.604;2023-07-24T08:07:34;9.63;;;3.83;;
4051;SDS011;2040;50.924;11.604;2023-07-24T08:10:00;7.43;;;3.90;;
4051;SDS011;2040;50.924;11.604;2023-07-24T08:12:26;8.10;;;4.10;;
4051;SDS011;2040;50.924;11.604;2023-07-24T08:14:51;6.30;;;3.83;;
4051;SDS011;2040;50.924;11.604;2023-07-24T08:17:17;5.07;;;3.53;;
4051;SDS011;2040;50.924;11.604;2023-07-24T08:19:42;6.80;;;4.00;;
4051;SDS011;2040;50.924;11.604;2023-07-24T08:22:08;7.30;;;4.33;;
4051;SDS011;2040;50.924;11.604;2023-07-24T08:24:37;6.03;;;4.10;;
4051;SDS011;2040;50.924;11.604;2023-07-24T08:27:02;9.50;;;4.97;;
4051;SDS011;2040;50.924;11.604;2023-07-24T08:29:28;7.90;;;3.73;;
4051;SDS011;2040;50.924;11.604;2023-07-24T08:31:54;8.03;;;4.20;;
4051;SDS011;2040;50.924;11.604;2023-07-24T08:34:19;10.10;;;4.40;;
4051;SDS011;2040;50.924;11.604;2023-07-24T08:36:45;9.57;;;4.33;;
4051;SDS011;2040;50.924;11.604;2023-07-24T08:39:11;8.03;;;4.60;;
4051;SDS011;2040;50.924;11.604;2023-07-24T08:41:36;7.27;;;3.53;;
4051;SDS011;2040;50.924;11.604;2023-07-24T08:44:03;7.07;;;4.87;;
4051;SDS011;2040;50.924;11.604;2023-07-24T08:46:35;8.13;;;4.17;;
4051;SDS011;2040;50.924;11.604;2023-07-24T08:49:02;7.53;;;3.90;;
4051;SDS011;2040;50.924;11.604;2023-07-24T08:51:28;6.60;;;4.10;;
4051;SDS011;2040;50.924;11.604;2023-07-24T08:53:55;9.97;;;4.70;;
4051;SDS011;2040;50.924;11.604;2023-07-24T08:56:22;8.40;;;4.10;;
4051;SDS011;2040;50.924;11.604;2023-07-24T08:58:48;8.63;;;4.63;;
4051;SDS011;2040;50.924;11.604;2023-07-24T09:01:14;7.20;;;4.17;;
4051;SDS011;2040;50.924;11.604;2023-07-24T09:03:40;8.70;;;4.40;;
4051;SDS011;2040;50.924;11.604;2023-07-24T09:06:05;6.60;;;4.13;;
4051;SDS011;2040;50.924;11.604;2023-07-24T09:08:35;9.07;;;4.57;;
4051;SDS011;2040;50.924;11.604;2023-07-24T09:11:02;9.40;;;4.77;;
4051;SDS011;2040;50.924;11.604;2023-07-24T09:13:29;6.97;;;4.20;;
4051;SDS011;2040;50.924;11.604;2023-07-24T09:15:56;11.07;;;4.90;;
4051;SDS011;2040;50.924;11.604;2023-07-24T09:18:22;11.67;;;5.03;;
4051;SDS011;2040;50.924;11.604;2023-07-24T09:20:48;8.80;;;4.73;;
4051;SDS011;2040;50.924;11.604;2023-07-24T09:23:15;6.60;;;4.00;;
4051;SDS011;2040;50.924;11.604;2023-07-24T09:25:52;5.23;;;3.93;;
4051;SDS011;2040;50.924;11.604;2023-07-24T09:28:18;8.70;;;4.73;;
4051;SDS011;2040;50.924;11.604;2023-07-24T09:30:54;6.50;;;4.17;;
4051;SDS011;2040;50.924;11.604;2023-07-24T09:33:22;9.37;;;4.73;;
4051;SDS011;2040;50.924;11.604;2023-07-24T09:35:58;11.33;;;4.80;;
4051;SDS011;2040;50.924;11.604;2023-07-24T09:38:28;11.33;;;5.40;;
4051;SDS011;2040;50.924;11.604;2023-07-24T09:40:55;14.40;;;5.43;;
4051;SDS011;2040;50.924;11.604;2023-07-24T09:43:22;9.80;;;4.80;;
4051;SDS011;2040;50.924;11.604;2023-07-24T09:45:49;12.47;;;5.30;;
4051;SDS011;2040;50.924;11.604;2023-07-24T09:48:16;8.43;;;4.73;;
4051;SDS011;2040;50.924;11.604;2023-07-24T09:50:44;7.90;;;4.33;;
4051;SDS011;2040;50.924;11.604;2023-07-24T09:55:51;9.30;;;5.30;;
4051;SDS011;2040;50.924;11.604;2023-07-24T09:58:24;12.50;;;5.30;;
4051;SDS011;2040;50.924;11.604;2023-07-24T10:00:51;12.00;;;5.37;;
4051;SDS011;2040;50.924;11.604;2023-07-24T10:03:18;9.20;;;4.70;;
4051;SDS011;2040;50.924;11.604;2023-07-24T10:05:45;8.20;;;5.17;;
4051;SDS011;2040;50.924;11.604;2023-07-24T10:08:12;9.60;;;5.37;;
4051;SDS011;2040;50.924;11.604;2023-07-24T10:10:40;11.00;;;6.00;;
4051;SDS011;2040;50.924;11.604;2023-07-24T10:13:06;9.50;;;5.80;;
4051;SDS011;2040;50.924;11.604;2023-07-24T10:15:36;9.50;;;5.53;;
4051;SDS011;2040;50.924;11.604;2023-07-24T10:18:03;10.67;;;4.97;;
4051;SDS011;2040;50.924;11.604;2023-07-24T10:20:38;8.80;;;5.00;;
4051;SDS011;2040;50.924;11.604;2023-07-24T10:23:06;9.83;;;5.40;;
4051;SDS011;2040;50.924;11.604;2023-07-24T10:25:34;10.50;;;5.47;;
4051;SDS011;2040;50.924;11.604;2023-07-24T10:28:07;9.20;;;5.07;;
4051;SDS011;2040;50.924;11.604;2023-07-24T10:30:42;8.83;;;4.80;;
4051;SDS011;2040;50.924;11.604;2023-07-24T10:33:18;9.63;;;5.00;;
4051;SDS011;2040;50.924;11.604;2023-07-24T10:35:46;10.97;;;5.53;;
4051;SDS011;2040;50.924;11.604;2023-07-24T10:38:16;10.77;;;5.67;;
4051;SDS011;2040;50.924;11.604;2023-07-24T10:40:42;8.50;;;6.03;;
4051;SDS011;2040;50.924;11.604;2023-07-24T10:43:10;10.00;;;5.00;;
4051;SDS011;2040;50.924;11.604;2023-07-24T10:48:16;10.97;;;5.50;;
4051;SDS011;2040;50.924;11.604;2023-07-24T10:50:44;10.93;;;5.67;;
4051;SDS011;2040;50.924;11.604;2023-07-24T10:53:13;13.03;;;5.70;;
4051;SDS011;2040;50.924;11.604;2023-07-24T10:55:41;13.50;;;6.13;;
4051;SDS011;2040;50.924;11.604;2023-07-24T10:58:07;8.87;;;4.93;;
4051;SDS011;2040;50.924;11.604;2023-07-24T11:00:33;13.97;;;5.77;;
4051;SDS011;2040;50.924;11.604;2023-07-24T11:02:59;9.93;;;5.60;;
4051;SDS011;2040;50.924;11.604;2023-07-24T11:05:24;7.73;;;4.63;;
4051;SDS011;2040;50.924;11.604;2023-07-24T11:07:51;11.20;;;5.40;;
4051;SDS011;2040;50.924;11.604;2023-07-24T11:10:17;14.27;;;5.97;;
4051;SDS011;2040;50.924;11.604;2023-07-24T11:12:43;12.60;;;5.43;;
4051;SDS011;2040;50.924;11.604;2023-07-24T11:15:09;12.40;;;5.20;;
4051;SDS011;2040;50.924;11.604;2023-07-24T11:17:36;14.23;;;6.23;;
4051;SDS011;2040;50.924;11.604;2023-07-24T11:22:39;8.57;;;5.13;;
4051;SDS011;2040;50.924;11.604;2023-07-24T11:25:05;9.10;;;6.07;;
4051;SDS011;2040;50.924;11.604;2023-07-24T11:27:31;9.53;;;5.87;;
4051;SDS011;2040;50.924;11.604;2023-07-24T11:29:58;8.63;;;4.90;;
4051;SDS011;2040;50.924;11.604;2023-07-24T11:32:24;10.20;;;6.07;;
4051;SDS011;2040;50.924;11.604;2023-07-24T11:34:49;9.87;;;5.50;;
4051;SDS011;2040;50.924;11.604;2023-07-24T11:37:16;11.67;;;6.33;;
4051;SDS011;2040;50.924;11.604;2023-07-24T11:39:43;10.00;;;5.57;;
4051;SDS011;2040;50.924;11.604;2023-07-24T11:42:20;11.27;;;6.33;;
4051;SDS011;2040;50.924;11.604;2023-07-24T11:44:46;10.93;;;6.07;;
4051;SDS011;2040;50.924;11.604;2023-07-24T11:47:11;13.73;;;6.10;;
4051;SDS011;2040;50.924;11.604;2023-07-24T11:49:37;13.17;;;5.87;;
4051;SDS011;2040;50.924;11.604;2023-07-24T11:52:08;11.17;;;5.87;;
4051;SDS011;2040;50.924;11.604;2023-07-24T11:54:34;9.83;;;5.37;;
4051;SDS011;2040;50.924;11.604;2023-07-24T11:57:00;14.33;;;5.90;;
4051;SDS011;2040;50.924;11.604;2023-07-24T11:59:26;8.37;;;5.53;;
4051;SDS011;2040;50.924;11.604;2023-07-24T12:01:52;10.90;;;6.07;;
4051;SDS011;2040;50.924;11.604;2023-07-24T12:04:18;9.77;;;5.37;;
4051;SDS011;2040;50.924;11.604;2023-07-24T12:06:45;8.43;;;4.97;;
4051;SDS011;2040;50.924;11.604;2023-07-24T12:09:11;13.67;;;5.60;;
4051;SDS011;2040;50.924;11.604;2023-07-24T12:11:40;10.70;;;6.10;;
4051;SDS011;2040;50.924;11.604;2023-07-24T12:14:07;11.30;;;5.50;;
4051;SDS011;2040;50.924;11.604;2023-07-24T12:16:33;12.43;;;5.97;;
4051;SDS011;2040;50.924;11.604;2023-07-24T12:19:00;9.80;;;5.63;;
4051;SDS011;2040;50.924;11.604;2023-07-24T12:21:25;9.17;;;5.43;;
4051;SDS011;2040;50.924;11.604;2023-07-24T12:23:51;11.60;;;6.10;;
4051;SDS011;2040;50.924;11.604;2023-07-24T12:26:16;11.73;;;5.70;;
4051;SDS011;2040;50.924;11.604;2023-07-24T12:28:42;12.93;;;6.07;;
4051;SDS011;2040;50.924;11.604;2023-07-24T12:31:08;10.30;;;6.30;;
4051;SDS011;2040;50.924;11.604;2023-07-24T12:33:33;10.97;;;5.20;;
4051;SDS011;2040;50.924;11.604;2023-07-24T12:35:59;8.40;;;5.80;;
4051;SDS011;2040;50.924;11.604;2023-07-24T12:38:24;10.80;;;6.23;;
4051;SDS011;2040;50.924;11.604;2023-07-24T12:40:50;14.20;;;5.70;;
4051;SDS011;2040;50.924;11.604;2023-07-24T12:43:16;10.77;;;5.97;;
4051;SDS011;2040;50.924;11.604;2023-07-24T12:45:41;11.27;;;5.53;;
4051;SDS011;2040;50.924;11.604;2023-07-24T12:48:07;11.23;;;5.70;;
4051;SDS011;2040;50.924;11.604;2023-07-24T12:50:33;9.93;;;5.33;;
4051;SDS011;2040;50.924;11.604;2023-07-24T12:52:58;11.10;;;6.30;;
4051;SDS011;2040;50.924;11.604;2023-07-24T12:55:24;8.17;;;5.17;;
4051;SDS011;2040;50.924;11.604;2023-07-24T12:57:49;9.70;;;5.77;;
4051;SDS011;2040;50.924;11.604;2023-07-24T13:00:15;9.13;;;5.10;;
4051;SDS011;2040;50.924;11.604;2023-07-24T13:02:41;10.17;;;5.67;;
4051;SDS011;2040;50.924;11.604;2023-07-24T13:05:06;9.63;;;5.80;;
4051;SDS011;2040;50.924;11.604;2023-07-24T13:07:32;18.03;;;6.80;;
4051;SDS011;2040;50.924;11.604;2023-07-24T13:09:58;10.67;;;5.63;;
4051;SDS011;2040;50.924;11.604;2023-07-24T13:12:23;9.47;;;5.67;;
4051;SDS011;2040;50.924;11.604;2023-07-24T13:14:49;13.10;;;6.03;;
4051;SDS011;2040;50.924;11.604;2023-07-24T13:17:15;17.37;;;6.00;;
4051;SDS011;2040;50.924;11.604;2023-07-24T13:19:41;10.50;;;5.43;;
4051;SDS011;2040;50.924;11.604;2023-07-24T13:22:07;8.23;;;5.60;;
4051;SDS011;2040;50.924;11.604;2023-07-24T13:24:32;11.73;;;5.93;;
4051;SDS011;2040;50.924;11.604;2023-07-24T13:26:58;9.40;;;5.70;;
4051;SDS011;2040;50.924;11.604;2023-07-24T13:29:24;12.90;;;6.00;;
4051;SDS011;2040;50.924;11.604;2023-07-24T13:31:50;11.40;;;6.90;;
4051;SDS011;2040;50.924;11.604;2023-07-24T13:34:17;13.00;;;5.60;;
4051;SDS011;2040;50.924;11.604;2023-07-24T13:36:44;10.80;;;5.63;;
4051;SDS011;2040;50.924;11.604;2023-07-24T13:39:11;9.80;;;5.73;;
4051;SDS011;2040;50.924;11.604;2023-07-24T13:41:37;11.77;;;6.50;;
4051;SDS011;2040;50.924;11.604;2023-07-24T13:44:03;11.80;;;5.43;;
4051;SDS011;2040;50.924;11.604;2023-07-24T13:46:29;11.73;;;5.97;;
4051;SDS011;2040;50.924;11.604;2023-07-24T13:48:55;12.73;;;5.20;;
4051;SDS011;2040;50.924;11.604;2023-07-24T13:51:20;11.50;;;6.10;;
4051;SDS011;2040;50.924;11.604;2023-07-24T13:53:46;11.53;;;5.50;;
4051;SDS011;2040;50.924;11.604;2023-07-24T13:56:13;8.60;;;5.17;;
4051;SDS011;2040;50.924;11.604;2023-07-24T13:58:39;10.90;;;6.20;;
4051;SDS011;2040;50.924;11.604;2023-07-24T14:01:05;10.13;;;5.53;;
4051;SDS011;2040;50.924;11.604;2023-07-24T14:03:32;10.33;;;5.57;;
4051;SDS011;2040;50.924;11.604;2023-07-24T14:05:58;10.30;;;5.73;;
4051;SDS011;2040;50.924;11.604;2023-07-24T14:08:24;7.40;;;4.83;;
4051;SDS011;2040;50.924;11.604;2023-07-24T14:10:50;8.50;;;5.10;;
4051;SDS011;2040;50.924;11.604;2023-07-24T14:13:16;8.50;;;5.13;;
4051;SDS011;2040;50.924;11.604;2023-07-24T14:15:41;11.03;;;5.50;;
4051;SDS011;2040;50.924;11.604;2023-07-24T14:18:07;10.77;;;5.40;;
4051;SDS011;2040;50.924;11.604;2023-07-24T14:20:33;14.63;;;5.40;;
4051;SDS011;2040;50.924;11.604;2023-07-24T14:22:58;12.77;;;5.50;;
4051;SDS011;2040;50.924;11.604;2023-07-24T14:25:24;9.87;;;5.20;;
4051;SDS011;2040;50.924;11.604;2023-07-24T14:27:49;9.67;;;5.40;;
4051;SDS011;2040;50.924;11.604;2023-07-24T14:30:15;12.80;;;5.20;;
4051;SDS011;2040;50.924;11.604;2023-07-24T14:32:41;8.73;;;4.50;;
4051;SDS011;2040;50.924;11.604;2023-07-24T14:35:06;10.70;;;5.10;;
4051;SDS011;2040;50.924;11.604;2023-07-24T14:37:32;10.67;;;5.00;;
4051;SDS011;2040;50.924;11.604;2023-07-24T14:39:58;9.33;;;5.70;;
4051;SDS011;2040;50.924;11.604;2023-07-24T14:42:23;9.43;;;5.30;;
4051;SDS011;2040;50.924;11.604;2023-07-24T14:44:49;9.70;;;5.43;;
4051;SDS011;2040;50.924;11.604;2023-07-24T14:47:15;9.20;;;5.53;;
4051;SDS011;2040;50.924;11.604;2023-07-24T14:49:40;9.93;;;5.00;;
4051;SDS011;2040;50.924;11.604;2023-07-24T14:52:06;8.40;;;5.07;;
4051;SDS011;2040;50.924;11.604;2023-07-24T14:54:32;10.33;;;4.83;;
4051;SDS011;2040;50.924;11.604;2023-07-24T14:56:57;8.03;;;4.83;;
4051;SDS011;2040;50.924;11.604;2023-07-24T14:59:23;7.20;;;4.30;;
4051;SDS011;2040;50.924;11.604;2023-07-24T15:01:49;6.00;;;4.30;;
4051;SDS011;2040;50.924;11.604;2023-07-24T15:04:14;8.27;;;5.13;;
4051;SDS011;2040;50.924;11.604;2023-07-24T15:09:44;10.23;;;4.37;;
4051;SDS011;2040;50.924;11.604;2023-07-24T15:12:37;13.50;;;5.90;;
4051;SDS011;2040;50.924;11.604;2023-07-24T15:15:08;9.87;;;5.20;;
4051;SDS011;2040;50.924;11.604;2023-07-24T15:17:54;7.67;;;4.30;;
4051;SDS011;2040;50.924;11.604;2023-07-24T15:20:50;6.77;;;4.37;;
4051;SDS011;2040;50.924;11.604;2023-07-24T15:26:17;7.73;;;5.20;;
4051;SDS011;2040;50.924;11.604;2023-07-24T15:28:42;6.83;;;4.43;;
4051;SDS011;2040;50.924;11.604;2023-07-24T15:31:08;8.20;;;4.70;;
4051;SDS011;2040;50.924;11.604;2023-07-24T15:33:34;7.57;;;4.57;;
4051;SDS011;2040;50.924;11.604;2023-07-24T15:36:00;6.53;;;4.30;;
4051;SDS011;2040;50.924;11.604;2023-07-24T15:38:25;7.60;;;4.23;;
4051;SDS011;2040;50.924;11.604;2023-07-24T15:40:51;6.60;;;3.83;;
4051;SDS011;2040;50.924;11.604;2023-07-24T15:43:19;7.00;;;4.50;;
4051;SDS011;2040;50.924;11.604;2023-07-24T15:45:49;9.07;;;4.50;;
4051;SDS011;2040;50.924;11.604;2023-07-24T15:48:14;5.70;;;3.73;;
4051;SDS011;2040;50.924;11.604;2023-07-24T15:50:40;6.27;;;3.90;;
4051;SDS011;2040;50.924;11.604;2023-07-24T15:53:06;9.43;;;4.73;;
4051;SDS011;2040;50.924;11.604;2023-07-24T15:55:31;9.30;;;4.10;;
4051;SDS011;2040;50.924;11.604;2023-07-24T15:57:57;8.03;;;5.20;;
4051;SDS011;2040;50.924;11.604;2023-07-24T16:00:24;9.00;;;5.07;;
4051;SDS011;2040;50.924;11.604;2023-07-24T16:02:50;7.60;;;4.53;;
4051;SDS011;2040;50.924;11.604;2023-07-24T16:05:19;8.13;;;4.37;;
4051;SDS011;2040;50.924;11.604;2023-07-24T16:07:46;12.53;;;5.37;;
4051;SDS011;2040;50.924;11.604;2023-07-24T16:10:16;8.10;;;5.03;;
4051;SDS011;2040;50.924;11.604;2023-07-24T16:12:41;8.20;;;5.17;;
4051;SDS011;2040;50.924;11.604;2023-07-24T16:15:07;7.70;;;4.63;;
4051;SDS011;2040;50.924;11.604;2023-07-24T16:17:33;8.53;;;4.80;;
4051;SDS011;2040;50.924;11.604;2023-07-24T16:19:59;6.33;;;4.27;;
4051;SDS011;2040;50.924;11.604;2023-07-24T16:22:25;7.27;;;5.00;;
4051;SDS011;2040;50.924;11.604;2023-07-24T16:24:50;6.83;;;4.33;;
4051;SDS011;2040;50.924;11.604;2023-07-24T16:27:16;7.00;;;4.37;;
4051;SDS011;2040;50.924;11.604;2023-07-24T16:29:41;10.93;;;4.93;;
4051;SDS011;2040;50.924;11.604;2023-07-24T16:32:07;6.70;;;4.20;;
4051;SDS011;2040;50.924;11.604;2023-07-24T16:34:33;8.10;;;5.20;;
4051;SDS011;2040;50.924;11.604;2023-07-24T16:37:01;6.57;;;4.70;;
4051;SDS011;2040;50.924;11.604;2023-07-24T16:39:30;8.33;;;4.90;;